Hauptseite
METAR-TAF:

METAR-TAF

Flughäfen :

Landivisiau, Frankreich

Militärflugplatz Landivisiau

Breite: 48-31N, Länge: 004-09W, Höhe: 106 m

Beobachtung

Neuester Wetterbericht von vor 24 Minuten, um 09:30 UTC
Wind 5 kt aus Nord/Nordost
Temperatur 17°C
Luftfeuchtigkeit 68%
Luftdruck 1024 hPa
Sichtweite 10 km oder mehr
keine Wolken unter 1500 m und keine Kumulonimbus oder Gewitterwolken

METAR: LFRJ 190930Z AUTO 02005KT CAVOK 17/11 Q1024

Zeit: 11:54 (09:54 UTC)

Prognose

Neuester Wetterbericht von vor 1 Stunde und 54 Minuten, um 08:00 UTC
Gültige Prognose vom 19 um 09 UTC bis 19 um 18 UTC
Wind 5 kt aus Nord/Nordost
Sichtweite 10 km oder mehr
keine Wolken unter 1500 m und keine Kumulonimbus oder Gewitterwolken

TAF: LFRJ 190800Z 1909/1918 02005KT CAVOK

Wetterbeobachtungen und Prognosen von mehr als 4000 Flughäfen (METAR und TAF Bericht).

Die verfügbaren Stationen werden durch gelbe und rote Markierungen auf der Karte dargestellt.

Führen Sie die Maus auf sie, um den Namen der Station zu sehen.

Darauf klicken, um die Beobachtung von Wetterbeobachtungen und Prognosen zu sehen.

Um die Karte zu ändern : klicken Sie auf den grünen Tasten mit einem schwarzen Kreuz Zum Vergrößern, auf den grünen Button mit einem Gedankenstrich zu verkleinern, oder auf die grünen Pfeile für benachbarte Karten.


METAR-TAF: